sensor_id;sensor_type;location;lat;lon;timestamp;P1;durP1;ratioP1;P2;durP2;ratioP2
9388;SDS011;4734;52.778;6.798;2024-01-25T00:01:21;11.43;;;3.55;;
9388;SDS011;4734;52.778;6.798;2024-01-25T00:04:08;13.90;;;4.63;;
9388;SDS011;4734;52.778;6.798;2024-01-25T00:06:54;14.90;;;4.43;;
9388;SDS011;4734;52.778;6.798;2024-01-25T00:09:39;12.93;;;3.50;;
9388;SDS011;4734;52.778;6.798;2024-01-25T00:12:25;12.77;;;3.00;;
9388;SDS011;4734;52.778;6.798;2024-01-25T00:15:11;15.35;;;4.55;;
9388;SDS011;4734;52.778;6.798;2024-01-25T00:17:57;18.07;;;3.60;;
9388;SDS011;4734;52.778;6.798;2024-01-25T00:20:44;14.00;;;3.15;;
9388;SDS011;4734;52.778;6.798;2024-01-25T00:23:29;11.73;;;3.47;;
9388;SDS011;4734;52.778;6.798;2024-01-25T00:26:15;14.13;;;3.47;;
9388;SDS011;4734;52.778;6.798;2024-01-25T00:29:00;18.33;;;3.42;;
9388;SDS011;4734;52.778;6.798;2024-01-25T00:31:46;9.75;;;3.08;;
9388;SDS011;4734;52.778;6.798;2024-01-25T00:34:32;17.37;;;4.23;;
9388;SDS011;4734;52.778;6.798;2024-01-25T00:37:19;12.85;;;3.28;;
9388;SDS011;4734;52.778;6.798;2024-01-25T00:40:06;18.35;;;3.72;;
9388;SDS011;4734;52.778;6.798;2024-01-25T00:42:53;10.80;;;3.28;;
9388;SDS011;4734;52.778;6.798;2024-01-25T00:45:39;15.50;;;4.00;;
9388;SDS011;4734;52.778;6.798;2024-01-25T00:48:25;17.67;;;4.00;;
9388;SDS011;4734;52.778;6.798;2024-01-25T00:51:13;14.70;;;3.47;;
9388;SDS011;4734;52.778;6.798;2024-01-25T00:54:01;15.23;;;3.63;;
9388;SDS011;4734;52.778;6.798;2024-01-25T00:56:48;16.47;;;3.47;;
9388;SDS011;4734;52.778;6.798;2024-01-25T00:59:36;16.70;;;4.00;;
9388;SDS011;4734;52.778;6.798;2024-01-25T01:02:22;18.38;;;3.75;;
9388;SDS011;4734;52.778;6.798;2024-01-25T01:05:14;15.75;;;3.83;;
9388;SDS011;4734;52.778;6.798;2024-01-25T01:08:00;11.27;;;3.95;;
9388;SDS011;4734;52.778;6.798;2024-01-25T01:10:47;12.32;;;2.95;;
9388;SDS011;4734;52.778;6.798;2024-01-25T01:13:33;9.38;;;3.20;;
9388;SDS011;4734;52.778;6.798;2024-01-25T01:16:19;9.85;;;2.97;;
9388;SDS011;4734;52.778;6.798;2024-01-25T01:19:04;12.27;;;3.67;;
9388;SDS011;4734;52.778;6.798;2024-01-25T01:21:51;11.82;;;3.28;;
9388;SDS011;4734;52.778;6.798;2024-01-25T01:24:36;12.30;;;3.67;;
9388;SDS011;4734;52.778;6.798;2024-01-25T01:27:23;16.88;;;3.92;;
9388;SDS011;4734;52.778;6.798;2024-01-25T01:30:09;16.40;;;3.50;;
9388;SDS011;4734;52.778;6.798;2024-01-25T01:32:56;12.77;;;3.23;;
9388;SDS011;4734;52.778;6.798;2024-01-25T01:35:41;13.30;;;3.70;;
9388;SDS011;4734;52.778;6.798;2024-01-25T01:38:27;10.15;;;3.88;;
9388;SDS011;4734;52.778;6.798;2024-01-25T01:41:12;14.98;;;3.67;;
9388;SDS011;4734;52.778;6.798;2024-01-25T01:43:59;20.65;;;4.55;;
9388;SDS011;4734;52.778;6.798;2024-01-25T01:46:45;19.67;;;4.55;;
9388;SDS011;4734;52.778;6.798;2024-01-25T01:49:31;17.67;;;3.37;;
9388;SDS011;4734;52.778;6.798;2024-01-25T01:52:16;14.30;;;4.28;;
9388;SDS011;4734;52.778;6.798;2024-01-25T01:55:03;10.25;;;3.30;;
9388;SDS011;4734;52.778;6.798;2024-01-25T01:57:51;20.63;;;4.00;;
9388;SDS011;4734;52.778;6.798;2024-01-25T02:00:38;15.32;;;3.72;;
9388;SDS011;4734;52.778;6.798;2024-01-25T02:03:25;18.45;;;3.00;;
9388;SDS011;4734;52.778;6.798;2024-01-25T02:06:10;20.67;;;4.30;;
9388;SDS011;4734;52.778;6.798;2024-01-25T02:08:56;12.27;;;3.70;;
9388;SDS011;4734;52.778;6.798;2024-01-25T02:11:42;17.27;;;4.13;;
9388;SDS011;4734;52.778;6.798;2024-01-25T02:14:28;13.00;;;3.20;;
9388;SDS011;4734;52.778;6.798;2024-01-25T02:17:14;13.45;;;3.97;;
9388;SDS011;4734;52.778;6.798;2024-01-25T02:20:00;16.85;;;4.35;;
9388;SDS011;4734;52.778;6.798;2024-01-25T02:22:48;15.77;;;3.97;;
9388;SDS011;4734;52.778;6.798;2024-01-25T02:25:34;13.30;;;4.07;;
9388;SDS011;4734;52.778;6.798;2024-01-25T02:28:19;15.20;;;3.75;;
9388;SDS011;4734;52.778;6.798;2024-01-25T02:31:05;23.25;;;3.53;;
9388;SDS011;4734;52.778;6.798;2024-01-25T02:33:50;11.90;;;3.27;;
9388;SDS011;4734;52.778;6.798;2024-01-25T02:36:36;18.45;;;3.80;;
9388;SDS011;4734;52.778;6.798;2024-01-25T02:39:23;14.77;;;3.40;;
9388;SDS011;4734;52.778;6.798;2024-01-25T02:42:08;17.73;;;3.87;;
9388;SDS011;4734;52.778;6.798;2024-01-25T02:44:54;20.88;;;4.78;;
9388;SDS011;4734;52.778;6.798;2024-01-25T02:47:39;13.37;;;3.63;;
9388;SDS011;4734;52.778;6.798;2024-01-25T02:50:25;12.03;;;3.67;;
9388;SDS011;4734;52.778;6.798;2024-01-25T02:53:10;15.10;;;3.70;;
9388;SDS011;4734;52.778;6.798;2024-01-25T02:55:57;15.60;;;3.73;;
9388;SDS011;4734;52.778;6.798;2024-01-25T02:58:43;12.37;;;3.77;;
9388;SDS011;4734;52.778;6.798;2024-01-25T03:01:36;18.23;;;3.90;;
9388;SDS011;4734;52.778;6.798;2024-01-25T03:04:22;16.17;;;4.27;;
9388;SDS011;4734;52.778;6.798;2024-01-25T03:07:08;20.70;;;4.17;;
9388;SDS011;4734;52.778;6.798;2024-01-25T03:09:53;17.40;;;3.80;;
9388;SDS011;4734;52.778;6.798;2024-01-25T03:12:40;21.97;;;4.37;;
9388;SDS011;4734;52.778;6.798;2024-01-25T03:15:26;13.57;;;3.80;;
9388;SDS011;4734;52.778;6.798;2024-01-25T03:18:11;13.17;;;3.57;;
9388;SDS011;4734;52.778;6.798;2024-01-25T03:20:57;12.43;;;3.60;;
9388;SDS011;4734;52.778;6.798;2024-01-25T03:23:42;15.00;;;3.70;;
9388;SDS011;4734;52.778;6.798;2024-01-25T03:26:28;11.73;;;3.90;;
9388;SDS011;4734;52.778;6.798;2024-01-25T03:29:14;15.73;;;3.67;;
9388;SDS011;4734;52.778;6.798;2024-01-25T03:32:00;9.60;;;3.17;;
9388;SDS011;4734;52.778;6.798;2024-01-25T03:34:45;13.80;;;3.67;;
9388;SDS011;4734;52.778;6.798;2024-01-25T03:37:31;21.13;;;4.83;;
9388;SDS011;4734;52.778;6.798;2024-01-25T03:40:17;13.40;;;3.30;;
9388;SDS011;4734;52.778;6.798;2024-01-25T03:43:03;14.97;;;3.60;;
9388;SDS011;4734;52.778;6.798;2024-01-25T03:45:50;7.60;;;3.07;;
9388;SDS011;4734;52.778;6.798;2024-01-25T03:48:35;10.37;;;3.70;;
9388;SDS011;4734;52.778;6.798;2024-01-25T03:51:21;11.10;;;4.13;;
9388;SDS011;4734;52.778;6.798;2024-01-25T03:54:08;17.13;;;4.30;;
9388;SDS011;4734;52.778;6.798;2024-01-25T03:56:53;11.32;;;4.00;;
9388;SDS011;4734;52.778;6.798;2024-01-25T03:59:39;10.60;;;3.47;;
9388;SDS011;4734;52.778;6.798;2024-01-25T04:02:26;18.27;;;3.83;;
9388;SDS011;4734;52.778;6.798;2024-01-25T04:05:11;16.83;;;4.10;;
9388;SDS011;4734;52.778;6.798;2024-01-25T04:07:58;19.17;;;4.13;;
9388;SDS011;4734;52.778;6.798;2024-01-25T04:10:43;14.73;;;3.13;;
9388;SDS011;4734;52.778;6.798;2024-01-25T04:13:29;16.40;;;3.63;;
9388;SDS011;4734;52.778;6.798;2024-01-25T04:16:14;16.37;;;3.73;;
9388;SDS011;4734;52.778;6.798;2024-01-25T04:19:01;17.57;;;3.87;;
9388;SDS011;4734;52.778;6.798;2024-01-25T04:21:47;10.70;;;3.37;;
9388;SDS011;4734;52.778;6.798;2024-01-25T04:24:32;14.43;;;3.73;;
9388;SDS011;4734;52.778;6.798;2024-01-25T04:27:18;8.53;;;3.20;;
9388;SDS011;4734;52.778;6.798;2024-01-25T04:30:04;18.13;;;3.87;;
9388;SDS011;4734;52.778;6.798;2024-01-25T04:32:50;14.77;;;3.63;;
9388;SDS011;4734;52.778;6.798;2024-01-25T04:35:37;10.97;;;3.00;;
9388;SDS011;4734;52.778;6.798;2024-01-25T04:38:23;10.13;;;3.40;;
9388;SDS011;4734;52.778;6.798;2024-01-25T04:41:08;15.97;;;3.77;;
9388;SDS011;4734;52.778;6.798;2024-01-25T04:43:54;15.90;;;4.00;;
9388;SDS011;4734;52.778;6.798;2024-01-25T04:46:39;13.97;;;3.60;;
9388;SDS011;4734;52.778;6.798;2024-01-25T04:49:26;17.10;;;3.47;;
9388;SDS011;4734;52.778;6.798;2024-01-25T04:52:13;14.33;;;3.80;;
9388;SDS011;4734;52.778;6.798;2024-01-25T04:54:58;13.03;;;3.53;;
9388;SDS011;4734;52.778;6.798;2024-01-25T04:57:44;14.63;;;3.57;;
9388;SDS011;4734;52.778;6.798;2024-01-25T05:00:29;14.83;;;4.00;;
9388;SDS011;4734;52.778;6.798;2024-01-25T05:03:15;14.07;;;3.67;;
9388;SDS011;4734;52.778;6.798;2024-01-25T05:06:00;17.67;;;3.73;;
9388;SDS011;4734;52.778;6.798;2024-01-25T05:08:47;14.23;;;4.03;;
9388;SDS011;4734;52.778;6.798;2024-01-25T05:11:33;14.00;;;3.97;;
9388;SDS011;4734;52.778;6.798;2024-01-25T05:14:18;13.40;;;3.27;;
9388;SDS011;4734;52.778;6.798;2024-01-25T05:17:04;13.07;;;3.30;;
9388;SDS011;4734;52.778;6.798;2024-01-25T05:19:49;16.17;;;3.97;;
9388;SDS011;4734;52.778;6.798;2024-01-25T05:22:35;10.40;;;3.03;;
9388;SDS011;4734;52.778;6.798;2024-01-25T05:25:25;15.40;;;3.67;;
9388;SDS011;4734;52.778;6.798;2024-01-25T05:28:11;14.60;;;3.83;;
9388;SDS011;4734;52.778;6.798;2024-01-25T05:30:56;15.10;;;3.80;;
9388;SDS011;4734;52.778;6.798;2024-01-25T05:33:42;14.27;;;2.87;;
9388;SDS011;4734;52.778;6.798;2024-01-25T05:36:27;12.70;;;3.57;;
9388;SDS011;4734;52.778;6.798;2024-01-25T05:39:13;8.50;;;2.90;;
9388;SDS011;4734;52.778;6.798;2024-01-25T05:42:01;16.43;;;3.93;;
9388;SDS011;4734;52.778;6.798;2024-01-25T05:44:46;16.67;;;3.33;;
9388;SDS011;4734;52.778;6.798;2024-01-25T05:47:32;14.27;;;3.70;;
9388;SDS011;4734;52.778;6.798;2024-01-25T05:50:18;9.13;;;3.47;;
9388;SDS011;4734;52.778;6.798;2024-01-25T05:53:03;10.17;;;3.53;;
9388;SDS011;4734;52.778;6.798;2024-01-25T05:55:49;15.27;;;3.23;;
9388;SDS011;4734;52.778;6.798;2024-01-25T05:58:36;14.50;;;3.57;;
9388;SDS011;4734;52.778;6.798;2024-01-25T06:01:21;10.13;;;3.40;;
9388;SDS011;4734;52.778;6.798;2024-01-25T06:04:07;16.27;;;3.43;;
9388;SDS011;4734;52.778;6.798;2024-01-25T06:06:52;6.23;;;2.70;;
9388;SDS011;4734;52.778;6.798;2024-01-25T06:09:38;10.30;;;3.10;;
9388;SDS011;4734;52.778;6.798;2024-01-25T06:12:23;15.53;;;3.60;;
9388;SDS011;4734;52.778;6.798;2024-01-25T06:15:10;11.43;;;3.40;;
9388;SDS011;4734;52.778;6.798;2024-01-25T06:17:56;17.83;;;3.33;;
9388;SDS011;4734;52.778;6.798;2024-01-25T06:20:41;12.20;;;3.67;;
9388;SDS011;4734;52.778;6.798;2024-01-25T06:23:27;12.03;;;3.07;;
9388;SDS011;4734;52.778;6.798;2024-01-25T06:26:13;12.23;;;2.83;;
9388;SDS011;4734;52.778;6.798;2024-01-25T06:28:58;10.20;;;3.47;;
9388;SDS011;4734;52.778;6.798;2024-01-25T06:31:45;10.73;;;3.40;;
9388;SDS011;4734;52.778;6.798;2024-01-25T06:34:31;11.87;;;3.30;;
9388;SDS011;4734;52.778;6.798;2024-01-25T06:37:16;13.13;;;3.40;;
9388;SDS011;4734;52.778;6.798;2024-01-25T06:40:02;10.00;;;3.30;;
9388;SDS011;4734;52.778;6.798;2024-01-25T06:42:49;9.43;;;3.40;;
9388;SDS011;4734;52.778;6.798;2024-01-25T06:45:34;12.43;;;3.53;;
9388;SDS011;4734;52.778;6.798;2024-01-25T06:48:21;14.77;;;3.47;;
9388;SDS011;4734;52.778;6.798;2024-01-25T06:51:06;13.50;;;4.00;;
9388;SDS011;4734;52.778;6.798;2024-01-25T06:53:52;12.97;;;3.43;;
9388;SDS011;4734;52.778;6.798;2024-01-25T06:56:38;6.50;;;3.13;;
9388;SDS011;4734;52.778;6.798;2024-01-25T06:59:23;7.47;;;3.30;;
9388;SDS011;4734;52.778;6.798;2024-01-25T07:02:09;11.90;;;3.83;;
9388;SDS011;4734;52.778;6.798;2024-01-25T07:04:56;11.53;;;3.37;;
9388;SDS011;4734;52.778;6.798;2024-01-25T07:07:42;8.30;;;2.93;;
9388;SDS011;4734;52.778;6.798;2024-01-25T07:10:27;16.60;;;3.90;;
9388;SDS011;4734;52.778;6.798;2024-01-25T07:13:13;9.93;;;3.47;;
9388;SDS011;4734;52.778;6.798;2024-01-25T07:15:59;8.83;;;4.00;;
9388;SDS011;4734;52.778;6.798;2024-01-25T07:18:44;11.03;;;3.47;;
9388;SDS011;4734;52.778;6.798;2024-01-25T07:21:31;13.17;;;3.40;;
9388;SDS011;4734;52.778;6.798;2024-01-25T07:24:17;10.97;;;2.77;;
9388;SDS011;4734;52.778;6.798;2024-01-25T07:27:02;8.27;;;3.23;;
9388;SDS011;4734;52.778;6.798;2024-01-25T07:29:48;10.37;;;3.60;;
9388;SDS011;4734;52.778;6.798;2024-01-25T07:32:34;22.40;;;4.20;;
9388;SDS011;4734;52.778;6.798;2024-01-25T07:35:20;13.80;;;2.83;;
9388;SDS011;4734;52.778;6.798;2024-01-25T07:38:08;11.90;;;3.27;;
9388;SDS011;4734;52.778;6.798;2024-01-25T07:40:54;12.47;;;3.50;;
9388;SDS011;4734;52.778;6.798;2024-01-25T07:43:39;17.13;;;3.47;;
9388;SDS011;4734;52.778;6.798;2024-01-25T07:46:26;10.70;;;3.10;;
9388;SDS011;4734;52.778;6.798;2024-01-25T07:49:11;13.03;;;3.53;;
9388;SDS011;4734;52.778;6.798;2024-01-25T07:51:57;17.60;;;3.83;;
9388;SDS011;4734;52.778;6.798;2024-01-25T07:54:44;19.20;;;3.97;;
9388;SDS011;4734;52.778;6.798;2024-01-25T07:57:29;10.87;;;3.87;;
9388;SDS011;4734;52.778;6.798;2024-01-25T08:00:15;12.20;;;3.53;;
9388;SDS011;4734;52.778;6.798;2024-01-25T08:03:07;18.50;;;4.07;;
9388;SDS011;4734;52.778;6.798;2024-01-25T08:06:02;9.10;;;3.03;;
9388;SDS011;4734;52.778;6.798;2024-01-25T08:08:48;13.77;;;3.23;;
9388;SDS011;4734;52.778;6.798;2024-01-25T08:11:35;17.10;;;4.67;;
9388;SDS011;4734;52.778;6.798;2024-01-25T08:14:21;11.97;;;3.80;;
9388;SDS011;4734;52.778;6.798;2024-01-25T08:17:06;8.97;;;3.13;;
9388;SDS011;4734;52.778;6.798;2024-01-25T08:19:52;12.13;;;3.67;;
9388;SDS011;4734;52.778;6.798;2024-01-25T08:22:37;15.63;;;4.17;;
9388;SDS011;4734;52.778;6.798;2024-01-25T08:25:25;12.40;;;3.93;;
9388;SDS011;4734;52.778;6.798;2024-01-25T08:28:12;8.07;;;3.33;;
9388;SDS011;4734;52.778;6.798;2024-01-25T08:31:07;18.13;;;3.83;;
9388;SDS011;4734;52.778;6.798;2024-01-25T08:33:52;10.73;;;4.13;;
9388;SDS011;4734;52.778;6.798;2024-01-25T08:36:38;14.20;;;3.57;;
9388;SDS011;4734;52.778;6.798;2024-01-25T08:39:23;7.10;;;3.40;;
9388;SDS011;4734;52.778;6.798;2024-01-25T08:42:09;7.93;;;3.00;;
9388;SDS011;4734;52.778;6.798;2024-01-25T08:44:56;11.23;;;3.33;;
9388;SDS011;4734;52.778;6.798;2024-01-25T08:47:44;10.93;;;3.70;;
9388;SDS011;4734;52.778;6.798;2024-01-25T08:50:29;10.50;;;3.53;;
9388;SDS011;4734;52.778;6.798;2024-01-25T08:53:15;14.40;;;4.10;;
9388;SDS011;4734;52.778;6.798;2024-01-25T08:56:00;12.10;;;3.70;;
9388;SDS011;4734;52.778;6.798;2024-01-25T08:58:46;9.67;;;4.10;;
9388;SDS011;4734;52.778;6.798;2024-01-25T09:01:35;13.13;;;4.50;;
9388;SDS011;4734;52.778;6.798;2024-01-25T09:04:20;11.80;;;4.00;;
9388;SDS011;4734;52.778;6.798;2024-01-25T09:07:06;15.23;;;4.40;;
9388;SDS011;4734;52.778;6.798;2024-01-25T09:09:51;10.10;;;3.67;;
9388;SDS011;4734;52.778;6.798;2024-01-25T09:12:37;9.97;;;3.27;;
9388;SDS011;4734;52.778;6.798;2024-01-25T09:15:24;18.20;;;4.40;;
9388;SDS011;4734;52.778;6.798;2024-01-25T09:18:13;15.70;;;3.77;;
9388;SDS011;4734;52.778;6.798;2024-01-25T09:20:59;14.70;;;3.43;;
9388;SDS011;4734;52.778;6.798;2024-01-25T09:23:44;17.07;;;4.43;;
9388;SDS011;4734;52.778;6.798;2024-01-25T09:26:34;13.47;;;3.90;;
9388;SDS011;4734;52.778;6.798;2024-01-25T09:29:23;13.63;;;4.23;;
9388;SDS011;4734;52.778;6.798;2024-01-25T09:32:09;19.03;;;4.57;;
9388;SDS011;4734;52.778;6.798;2024-01-25T09:34:56;14.63;;;4.33;;
9388;SDS011;4734;52.778;6.798;2024-01-25T09:37:42;11.83;;;4.43;;
9388;SDS011;4734;52.778;6.798;2024-01-25T09:40:27;22.70;;;4.70;;
9388;SDS011;4734;52.778;6.798;2024-01-25T09:43:13;13.00;;;4.33;;
9388;SDS011;4734;52.778;6.798;2024-01-25T09:45:58;18.73;;;4.37;;
9388;SDS011;4734;52.778;6.798;2024-01-25T09:48:45;11.70;;;4.13;;
9388;SDS011;4734;52.778;6.798;2024-01-25T09:51:33;13.77;;;4.10;;
9388;SDS011;4734;52.778;6.798;2024-01-25T09:54:22;12.40;;;4.00;;
9388;SDS011;4734;52.778;6.798;2024-01-25T09:57:12;14.30;;;4.27;;
9388;SDS011;4734;52.778;6.798;2024-01-25T10:00:00;8.17;;;3.40;;
9388;SDS011;4734;52.778;6.798;2024-01-25T10:02:49;18.63;;;4.67;;
9388;SDS011;4734;52.778;6.798;2024-01-25T10:05:44;11.63;;;3.90;;
9388;SDS011;4734;52.778;6.798;2024-01-25T10:08:31;14.63;;;4.57;;
9388;SDS011;4734;52.778;6.798;2024-01-25T10:11:20;17.23;;;3.83;;
9388;SDS011;4734;52.778;6.798;2024-01-25T10:14:06;16.17;;;4.67;;
9388;SDS011;4734;52.778;6.798;2024-01-25T10:16:52;15.20;;;4.30;;
9388;SDS011;4734;52.778;6.798;2024-01-25T10:19:38;11.07;;;4.43;;
9388;SDS011;4734;52.778;6.798;2024-01-25T10:22:27;20.77;;;4.43;;
9388;SDS011;4734;52.778;6.798;2024-01-25T10:25:14;9.40;;;3.57;;
9388;SDS011;4734;52.778;6.798;2024-01-25T10:27:59;13.63;;;3.67;;
9388;SDS011;4734;52.778;6.798;2024-01-25T10:30:45;20.67;;;4.43;;
9388;SDS011;4734;52.778;6.798;2024-01-25T10:33:32;13.67;;;4.57;;
9388;SDS011;4734;52.778;6.798;2024-01-25T10:36:19;16.47;;;4.43;;
9388;SDS011;4734;52.778;6.798;2024-01-25T10:39:06;12.27;;;4.80;;
9388;SDS011;4734;52.778;6.798;2024-01-25T10:41:54;17.63;;;4.93;;
9388;SDS011;4734;52.778;6.798;2024-01-25T10:44:40;13.87;;;4.40;;
9388;SDS011;4734;52.778;6.798;2024-01-25T10:47:26;12.03;;;4.33;;
9388;SDS011;4734;52.778;6.798;2024-01-25T10:50:14;19.47;;;4.97;;
9388;SDS011;4734;52.778;6.798;2024-01-25T10:53:00;14.97;;;4.63;;
9388;SDS011;4734;52.778;6.798;2024-01-25T10:55:46;22.23;;;5.40;;
9388;SDS011;4734;52.778;6.798;2024-01-25T10:58:40;15.67;;;4.63;;
9388;SDS011;4734;52.778;6.798;2024-01-25T11:01:26;16.47;;;4.33;;
9388;SDS011;4734;52.778;6.798;2024-01-25T11:04:12;16.83;;;4.53;;
9388;SDS011;4734;52.778;6.798;2024-01-25T11:07:04;20.77;;;4.70;;
9388;SDS011;4734;52.778;6.798;2024-01-25T11:09:52;18.73;;;5.60;;
9388;SDS011;4734;52.778;6.798;2024-01-25T11:12:46;21.83;;;5.17;;
9388;SDS011;4734;52.778;6.798;2024-01-25T11:15:37;21.97;;;5.47;;
9388;SDS011;4734;52.778;6.798;2024-01-25T11:18:24;15.93;;;4.43;;
9388;SDS011;4734;52.778;6.798;2024-01-25T11:21:10;18.43;;;4.97;;
9388;SDS011;4734;52.778;6.798;2024-01-25T11:24:03;23.33;;;4.80;;
9388;SDS011;4734;52.778;6.798;2024-01-25T11:26:49;26.87;;;5.40;;
9388;SDS011;4734;52.778;6.798;2024-01-25T11:29:35;21.33;;;5.00;;
9388;SDS011;4734;52.778;6.798;2024-01-25T11:32:23;20.13;;;4.97;;
9388;SDS011;4734;52.778;6.798;2024-01-25T11:35:09;18.40;;;5.17;;
9388;SDS011;4734;52.778;6.798;2024-01-25T11:38:00;16.70;;;5.30;;
9388;SDS011;4734;52.778;6.798;2024-01-25T11:40:46;18.40;;;4.70;;
9388;SDS011;4734;52.778;6.798;2024-01-25T11:43:31;19.27;;;5.43;;
9388;SDS011;4734;52.778;6.798;2024-01-25T11:46:18;20.47;;;5.13;;
9388;SDS011;4734;52.778;6.798;2024-01-25T11:49:05;20.60;;;5.93;;
9388;SDS011;4734;52.778;6.798;2024-01-25T11:51:51;16.90;;;5.07;;
9388;SDS011;4734;52.778;6.798;2024-01-25T11:54:38;18.67;;;4.63;;
9388;SDS011;4734;52.778;6.798;2024-01-25T11:57:23;14.60;;;5.03;;
9388;SDS011;4734;52.778;6.798;2024-01-25T12:00:09;12.93;;;4.13;;
9388;SDS011;4734;52.778;6.798;2024-01-25T12:02:57;19.77;;;5.45;;
9388;SDS011;4734;52.778;6.798;2024-01-25T12:05:44;14.15;;;4.68;;
9388;SDS011;4734;52.778;6.798;2024-01-25T12:08:31;14.38;;;4.95;;
9388;SDS011;4734;52.778;6.798;2024-01-25T12:11:17;13.70;;;4.68;;
9388;SDS011;4734;52.778;6.798;2024-01-25T12:14:02;17.90;;;4.82;;
9388;SDS011;4734;52.778;6.798;2024-01-25T12:16:48;17.40;;;4.60;;
9388;SDS011;4734;52.778;6.798;2024-01-25T12:19:33;14.30;;;4.38;;
9388;SDS011;4734;52.778;6.798;2024-01-25T12:22:21;18.20;;;4.50;;
9388;SDS011;4734;52.778;6.798;2024-01-25T12:25:09;20.10;;;5.00;;
9388;SDS011;4734;52.778;6.798;2024-01-25T12:27:57;20.88;;;5.47;;
9388;SDS011;4734;52.778;6.798;2024-01-25T12:30:44;16.95;;;4.72;;
9388;SDS011;4734;52.778;6.798;2024-01-25T12:33:30;16.27;;;4.88;;
9388;SDS011;4734;52.778;6.798;2024-01-25T12:36:16;21.73;;;5.45;;
9388;SDS011;4734;52.778;6.798;2024-01-25T12:39:03;23.23;;;5.45;;
9388;SDS011;4734;52.778;6.798;2024-01-25T12:41:49;20.73;;;4.97;;
9388;SDS011;4734;52.778;6.798;2024-01-25T12:44:35;22.15;;;5.35;;
9388;SDS011;4734;52.778;6.798;2024-01-25T12:47:20;17.45;;;4.80;;
9388;SDS011;4734;52.778;6.798;2024-01-25T12:50:06;23.35;;;4.70;;
9388;SDS011;4734;52.778;6.798;2024-01-25T12:52:52;14.13;;;5.03;;
9388;SDS011;4734;52.778;6.798;2024-01-25T12:55:40;16.30;;;4.32;;
9388;SDS011;4734;52.778;6.798;2024-01-25T12:58:30;23.35;;;5.85;;
9388;SDS011;4734;52.778;6.798;2024-01-25T13:01:18;20.63;;;4.97;;
9388;SDS011;4734;52.778;6.798;2024-01-25T13:04:04;15.48;;;5.28;;
9388;SDS011;4734;52.778;6.798;2024-01-25T13:06:51;14.38;;;4.32;;
9388;SDS011;4734;52.778;6.798;2024-01-25T13:09:40;20.92;;;5.22;;
9388;SDS011;4734;52.778;6.798;2024-01-25T13:12:27;15.75;;;5.10;;
9388;SDS011;4734;52.778;6.798;2024-01-25T13:15:12;15.88;;;5.28;;
9388;SDS011;4734;52.778;6.798;2024-01-25T13:17:58;14.80;;;4.75;;
9388;SDS011;4734;52.778;6.798;2024-01-25T13:20:44;19.48;;;5.28;;
9388;SDS011;4734;52.778;6.798;2024-01-25T13:23:30;21.80;;;5.60;;
9388;SDS011;4734;52.778;6.798;2024-01-25T13:26:16;16.15;;;5.05;;
9388;SDS011;4734;52.778;6.798;2024-01-25T13:29:02;18.30;;;5.13;;
9388;SDS011;4734;52.778;6.798;2024-01-25T13:31:48;20.88;;;4.90;;
9388;SDS011;4734;52.778;6.798;2024-01-25T13:34:33;16.95;;;4.90;;
9388;SDS011;4734;52.778;6.798;2024-01-25T13:37:19;20.48;;;4.88;;
9388;SDS011;4734;52.778;6.798;2024-01-25T13:40:05;17.52;;;5.07;;
9388;SDS011;4734;52.778;6.798;2024-01-25T13:42:51;18.38;;;5.30;;
9388;SDS011;4734;52.778;6.798;2024-01-25T13:45:40;18.83;;;5.03;;
9388;SDS011;4734;52.778;6.798;2024-01-25T13:48:25;16.95;;;4.70;;
9388;SDS011;4734;52.778;6.798;2024-01-25T13:51:11;21.40;;;4.78;;
9388;SDS011;4734;52.778;6.798;2024-01-25T13:54:00;17.45;;;4.45;;
9388;SDS011;4734;52.778;6.798;2024-01-25T13:56:45;18.90;;;4.22;;
9388;SDS011;4734;52.778;6.798;2024-01-25T13:59:31;14.20;;;4.32;;
9388;SDS011;4734;52.778;6.798;2024-01-25T14:02:18;19.33;;;4.68;;
9388;SDS011;4734;52.778;6.798;2024-01-25T14:05:04;17.05;;;4.28;;
9388;SDS011;4734;52.778;6.798;2024-01-25T14:07:50;18.83;;;4.97;;
9388;SDS011;4734;52.778;6.798;2024-01-25T14:10:36;13.90;;;4.70;;
9388;SDS011;4734;52.778;6.798;2024-01-25T14:13:21;16.38;;;3.92;;
9388;SDS011;4734;52.778;6.798;2024-01-25T14:16:07;14.27;;;5.18;;
9388;SDS011;4734;52.778;6.798;2024-01-25T14:18:54;15.57;;;3.85;;
9388;SDS011;4734;52.778;6.798;2024-01-25T14:21:41;17.42;;;3.97;;
9388;SDS011;4734;52.778;6.798;2024-01-25T14:24:26;19.10;;;3.97;;
9388;SDS011;4734;52.778;6.798;2024-01-25T14:27:12;15.10;;;4.57;;
9388;SDS011;4734;52.778;6.798;2024-01-25T14:29:57;12.55;;;3.67;;
9388;SDS011;4734;52.778;6.798;2024-01-25T14:32:43;18.20;;;4.20;;
9388;SDS011;4734;52.778;6.798;2024-01-25T14:35:31;16.27;;;4.13;;
9388;SDS011;4734;52.778;6.798;2024-01-25T14:38:17;12.88;;;4.00;;
9388;SDS011;4734;52.778;6.798;2024-01-25T14:41:03;15.00;;;3.70;;
9388;SDS011;4734;52.778;6.798;2024-01-25T14:44:04;11.25;;;4.20;;
9388;SDS011;4734;52.778;6.798;2024-01-25T14:46:53;14.25;;;3.60;;
9388;SDS011;4734;52.778;6.798;2024-01-25T14:53:13;17.67;;;3.40;;
9388;SDS011;4734;52.778;6.798;2024-01-25T14:56:27;11.65;;;3.90;;
9388;SDS011;4734;52.778;6.798;2024-01-25T15:03:14;14.32;;;4.05;;
9388;SDS011;4734;52.778;6.798;2024-01-25T15:06:00;12.10;;;3.60;;
9388;SDS011;4734;52.778;6.798;2024-01-25T15:08:47;12.75;;;4.15;;
9388;SDS011;4734;52.778;6.798;2024-01-25T15:11:32;11.02;;;3.38;;
9388;SDS011;4734;52.778;6.798;2024-01-25T15:14:18;13.10;;;4.07;;
9388;SDS011;4734;52.778;6.798;2024-01-25T15:17:03;16.63;;;4.45;;
9388;SDS011;4734;52.778;6.798;2024-01-25T15:19:49;19.27;;;4.38;;
9388;SDS011;4734;52.778;6.798;2024-01-25T15:22:35;15.67;;;4.27;;
9388;SDS011;4734;52.778;6.798;2024-01-25T15:25:23;10.53;;;3.87;;
9388;SDS011;4734;52.778;6.798;2024-01-25T15:28:10;18.25;;;4.47;;
9388;SDS011;4734;52.778;6.798;2024-01-25T15:30:56;17.10;;;4.07;;
9388;SDS011;4734;52.778;6.798;2024-01-25T15:33:41;14.37;;;4.37;;
9388;SDS011;4734;52.778;6.798;2024-01-25T15:36:27;14.33;;;4.20;;
9388;SDS011;4734;52.778;6.798;2024-01-25T15:46:44;16.90;;;4.68;;
9388;SDS011;4734;52.778;6.798;2024-01-25T15:49:29;13.45;;;4.25;;
9388;SDS011;4734;52.778;6.798;2024-01-25T15:52:14;23.43;;;5.03;;
9388;SDS011;4734;52.778;6.798;2024-01-25T15:55:00;13.33;;;5.23;;
9388;SDS011;4734;52.778;6.798;2024-01-25T15:57:45;15.67;;;4.83;;
9388;SDS011;4734;52.778;6.798;2024-01-25T16:00:32;15.88;;;4.63;;
9388;SDS011;4734;52.778;6.798;2024-01-25T16:03:18;21.43;;;4.67;;
9388;SDS011;4734;52.778;6.798;2024-01-25T16:06:04;15.43;;;4.80;;
9388;SDS011;4734;52.778;6.798;2024-01-25T16:08:49;12.70;;;4.03;;
9388;SDS011;4734;52.778;6.798;2024-01-25T16:11:35;15.87;;;4.27;;
9388;SDS011;4734;52.778;6.798;2024-01-25T16:14:20;16.43;;;4.57;;
9388;SDS011;4734;52.778;6.798;2024-01-25T16:17:07;15.57;;;4.50;;
9388;SDS011;4734;52.778;6.798;2024-01-25T16:19:53;15.90;;;4.03;;
9388;SDS011;4734;52.778;6.798;2024-01-25T16:22:39;11.77;;;4.60;;
9388;SDS011;4734;52.778;6.798;2024-01-25T16:25:25;18.20;;;5.03;;
9388;SDS011;4734;52.778;6.798;2024-01-25T16:28:11;17.77;;;5.57;;
9388;SDS011;4734;52.778;6.798;2024-01-25T16:30:56;16.60;;;5.53;;
9388;SDS011;4734;52.778;6.798;2024-01-25T16:33:43;18.00;;;4.93;;
9388;SDS011;4734;52.778;6.798;2024-01-25T16:36:29;19.87;;;5.10;;
9388;SDS011;4734;52.778;6.798;2024-01-25T16:39:14;23.73;;;5.13;;
9388;SDS011;4734;52.778;6.798;2024-01-25T16:42:01;17.70;;;5.03;;
9388;SDS011;4734;52.778;6.798;2024-01-25T16:44:49;13.50;;;4.37;;
9388;SDS011;4734;52.778;6.798;2024-01-25T16:47:35;21.70;;;5.03;;
9388;SDS011;4734;52.778;6.798;2024-01-25T16:50:22;24.17;;;5.83;;
9388;SDS011;4734;52.778;6.798;2024-01-25T16:53:07;17.40;;;5.73;;
9388;SDS011;4734;52.778;6.798;2024-01-25T16:55:53;19.00;;;6.97;;
9388;SDS011;4734;52.778;6.798;2024-01-25T16:58:38;14.83;;;4.60;;
9388;SDS011;4734;52.778;6.798;2024-01-25T17:01:24;16.77;;;4.80;;
9388;SDS011;4734;52.778;6.798;2024-01-25T17:04:09;17.02;;;5.65;;
9388;SDS011;4734;52.778;6.798;2024-01-25T17:06:57;17.37;;;5.23;;
9388;SDS011;4734;52.778;6.798;2024-01-25T17:09:42;15.30;;;5.33;;
9388;SDS011;4734;52.778;6.798;2024-01-25T17:12:28;20.23;;;5.07;;
9388;SDS011;4734;52.778;6.798;2024-01-25T17:15:14;18.60;;;5.23;;